sensor_id;sensor_type;location;lat;lon;timestamp;P1;durP1;ratioP1;P2;durP2;ratioP2
52414;SDS011;38340;52.964;6.086;2023-03-22T00:00:47;9.23;;;6.32;;
52414;SDS011;38340;52.964;6.086;2023-03-22T00:03:14;10.55;;;6.70;;
52414;SDS011;38340;52.964;6.086;2023-03-22T00:05:40;12.52;;;6.15;;
52414;SDS011;38340;52.964;6.086;2023-03-22T00:08:07;15.07;;;7.60;;
52414;SDS011;38340;52.964;6.086;2023-03-22T00:10:33;9.75;;;6.47;;
52414;SDS011;38340;52.964;6.086;2023-03-22T00:13:01;13.13;;;5.82;;
52414;SDS011;38340;52.964;6.086;2023-03-22T00:15:28;12.57;;;5.90;;
52414;SDS011;38340;52.964;6.086;2023-03-22T00:17:54;11.20;;;6.93;;
52414;SDS011;38340;52.964;6.086;2023-03-22T00:20:23;8.68;;;6.13;;
52414;SDS011;38340;52.964;6.086;2023-03-22T00:22:57;13.10;;;6.80;;
52414;SDS011;38340;52.964;6.086;2023-03-22T00:25:23;14.88;;;6.50;;
52414;SDS011;38340;52.964;6.086;2023-03-22T00:27:50;10.30;;;5.97;;
52414;SDS011;38340;52.964;6.086;2023-03-22T00:30:15;9.35;;;6.00;;
52414;SDS011;38340;52.964;6.086;2023-03-22T00:32:41;13.85;;;6.30;;
52414;SDS011;38340;52.964;6.086;2023-03-22T00:35:07;13.95;;;6.05;;
52414;SDS011;38340;52.964;6.086;2023-03-22T00:37:34;11.15;;;6.00;;
52414;SDS011;38340;52.964;6.086;2023-03-22T00:40:11;14.43;;;5.82;;
52414;SDS011;38340;52.964;6.086;2023-03-22T00:42:38;12.98;;;6.22;;
52414;SDS011;38340;52.964;6.086;2023-03-22T00:45:05;12.73;;;6.28;;
52414;SDS011;38340;52.964;6.086;2023-03-22T00:47:33;7.82;;;5.95;;
52414;SDS011;38340;52.964;6.086;2023-03-22T00:49:59;11.68;;;5.40;;
52414;SDS011;38340;52.964;6.086;2023-03-22T00:52:25;6.75;;;4.80;;
52414;SDS011;38340;52.964;6.086;2023-03-22T00:54:51;8.95;;;4.85;;
52414;SDS011;38340;52.964;6.086;2023-03-22T00:57:17;15.57;;;5.43;;
52414;SDS011;38340;52.964;6.086;2023-03-22T00:59:43;10.52;;;5.50;;
52414;SDS011;38340;52.964;6.086;2023-03-22T01:02:09;8.25;;;4.53;;
52414;SDS011;38340;52.964;6.086;2023-03-22T01:04:37;13.05;;;4.63;;
52414;SDS011;38340;52.964;6.086;2023-03-22T01:07:14;9.98;;;5.07;;
52414;SDS011;38340;52.964;6.086;2023-03-22T01:12:11;14.90;;;4.85;;
52414;SDS011;38340;52.964;6.086;2023-03-22T01:14:38;11.65;;;5.10;;
52414;SDS011;38340;52.964;6.086;2023-03-22T01:17:05;10.50;;;5.07;;
52414;SDS011;38340;52.964;6.086;2023-03-22T01:19:31;9.20;;;4.55;;
52414;SDS011;38340;52.964;6.086;2023-03-22T01:21:58;8.95;;;4.82;;
52414;SDS011;38340;52.964;6.086;2023-03-22T01:24:24;11.10;;;5.50;;
52414;SDS011;38340;52.964;6.086;2023-03-22T01:26:50;10.02;;;5.20;;
52414;SDS011;38340;52.964;6.086;2023-03-22T01:29:15;10.95;;;4.97;;
52414;SDS011;38340;52.964;6.086;2023-03-22T01:31:42;8.30;;;4.80;;
52414;SDS011;38340;52.964;6.086;2023-03-22T01:34:07;7.15;;;5.13;;
52414;SDS011;38340;52.964;6.086;2023-03-22T01:36:33;8.40;;;5.40;;
52414;SDS011;38340;52.964;6.086;2023-03-22T01:39:00;10.52;;;5.00;;
52414;SDS011;38340;52.964;6.086;2023-03-22T01:41:25;10.82;;;4.85;;
52414;SDS011;38340;52.964;6.086;2023-03-22T01:44:11;13.60;;;5.40;;
52414;SDS011;38340;52.964;6.086;2023-03-22T01:46:39;14.98;;;5.10;;
52414;SDS011;38340;52.964;6.086;2023-03-22T01:49:07;11.57;;;5.38;;
52414;SDS011;38340;52.964;6.086;2023-03-22T01:51:37;10.82;;;5.40;;
52414;SDS011;38340;52.964;6.086;2023-03-22T01:54:08;12.88;;;4.88;;
52414;SDS011;38340;52.964;6.086;2023-03-22T01:56:38;9.25;;;5.07;;
52414;SDS011;38340;52.964;6.086;2023-03-22T01:59:05;9.63;;;5.00;;
52414;SDS011;38340;52.964;6.086;2023-03-22T02:01:35;9.02;;;5.75;;
52414;SDS011;38340;52.964;6.086;2023-03-22T02:04:11;9.18;;;5.60;;
52414;SDS011;38340;52.964;6.086;2023-03-22T02:06:40;7.47;;;4.82;;
52414;SDS011;38340;52.964;6.086;2023-03-22T02:09:07;7.32;;;4.43;;
52414;SDS011;38340;52.964;6.086;2023-03-22T02:20:02;12.25;;;5.10;;
52414;SDS011;38340;52.964;6.086;2023-03-22T02:26:39;15.48;;;5.60;;
52414;SDS011;38340;52.964;6.086;2023-03-22T02:34:39;13.63;;;5.30;;
52414;SDS011;38340;52.964;6.086;2023-03-22T02:40:02;13.88;;;5.28;;
52414;SDS011;38340;52.964;6.086;2023-03-22T02:45:30;12.20;;;5.55;;
52414;SDS011;38340;52.964;6.086;2023-03-22T02:48:51;11.10;;;5.07;;
52414;SDS011;38340;52.964;6.086;2023-03-22T02:51:16;12.75;;;6.13;;
52414;SDS011;38340;52.964;6.086;2023-03-22T02:53:49;11.25;;;5.68;;
52414;SDS011;38340;52.964;6.086;2023-03-22T02:58:55;12.30;;;5.68;;
52414;SDS011;38340;52.964;6.086;2023-03-22T03:01:29;14.80;;;6.13;;
52414;SDS011;38340;52.964;6.086;2023-03-22T03:04:00;14.40;;;5.65;;
52414;SDS011;38340;52.964;6.086;2023-03-22T03:06:30;14.88;;;5.30;;
52414;SDS011;38340;52.964;6.086;2023-03-22T03:09:03;10.20;;;6.40;;
52414;SDS011;38340;52.964;6.086;2023-03-22T03:11:29;10.88;;;5.55;;
52414;SDS011;38340;52.964;6.086;2023-03-22T03:13:55;16.80;;;6.38;;
52414;SDS011;38340;52.964;6.086;2023-03-22T03:16:23;12.68;;;5.90;;
52414;SDS011;38340;52.964;6.086;2023-03-22T03:24:28;12.68;;;6.30;;
52414;SDS011;38340;52.964;6.086;2023-03-22T03:27:21;8.38;;;5.82;;
52414;SDS011;38340;52.964;6.086;2023-03-22T03:32:27;13.15;;;6.70;;
52414;SDS011;38340;52.964;6.086;2023-03-22T03:38:11;10.75;;;6.10;;
52414;SDS011;38340;52.964;6.086;2023-03-22T03:40:46;10.20;;;5.75;;
52414;SDS011;38340;52.964;6.086;2023-03-22T03:43:15;10.30;;;6.03;;
52414;SDS011;38340;52.964;6.086;2023-03-22T03:45:42;9.50;;;5.82;;
52414;SDS011;38340;52.964;6.086;2023-03-22T03:48:13;11.88;;;5.57;;
52414;SDS011;38340;52.964;6.086;2023-03-22T03:50:46;11.20;;;5.63;;
52414;SDS011;38340;52.964;6.086;2023-03-22T03:53:14;11.23;;;5.78;;
52414;SDS011;38340;52.964;6.086;2023-03-22T03:55:40;13.10;;;6.43;;
52414;SDS011;38340;52.964;6.086;2023-03-22T03:58:06;13.57;;;5.93;;
52414;SDS011;38340;52.964;6.086;2023-03-22T04:00:35;11.98;;;6.30;;
52414;SDS011;38340;52.964;6.086;2023-03-22T04:03:01;9.70;;;6.30;;
52414;SDS011;38340;52.964;6.086;2023-03-22T04:05:28;11.65;;;6.07;;
52414;SDS011;38340;52.964;6.086;2023-03-22T04:07:53;11.52;;;6.03;;
52414;SDS011;38340;52.964;6.086;2023-03-22T04:10:19;9.27;;;6.47;;
52414;SDS011;38340;52.964;6.086;2023-03-22T04:12:45;12.77;;;7.10;;
52414;SDS011;38340;52.964;6.086;2023-03-22T04:15:11;15.27;;;7.38;;
52414;SDS011;38340;52.964;6.086;2023-03-22T04:17:37;10.23;;;7.05;;
52414;SDS011;38340;52.964;6.086;2023-03-22T04:20:04;11.77;;;6.57;;
52414;SDS011;38340;52.964;6.086;2023-03-22T04:22:31;10.27;;;6.88;;
52414;SDS011;38340;52.964;6.086;2023-03-22T04:25:02;12.40;;;6.93;;
52414;SDS011;38340;52.964;6.086;2023-03-22T04:27:38;12.10;;;6.88;;
52414;SDS011;38340;52.964;6.086;2023-03-22T04:30:05;8.57;;;6.47;;
52414;SDS011;38340;52.964;6.086;2023-03-22T04:32:36;9.57;;;6.57;;
52414;SDS011;38340;52.964;6.086;2023-03-22T04:35:04;9.50;;;6.70;;
52414;SDS011;38340;52.964;6.086;2023-03-22T04:37:30;14.30;;;7.53;;
52414;SDS011;38340;52.964;6.086;2023-03-22T04:39:56;10.70;;;6.65;;
52414;SDS011;38340;52.964;6.086;2023-03-22T04:42:23;9.50;;;6.30;;
52414;SDS011;38340;52.964;6.086;2023-03-22T04:44:49;14.90;;;7.15;;
52414;SDS011;38340;52.964;6.086;2023-03-22T04:47:15;10.65;;;7.28;;
52414;SDS011;38340;52.964;6.086;2023-03-22T04:49:42;15.82;;;7.50;;
52414;SDS011;38340;52.964;6.086;2023-03-22T04:52:08;19.38;;;8.00;;
52414;SDS011;38340;52.964;6.086;2023-03-22T04:54:34;12.95;;;7.75;;
52414;SDS011;38340;52.964;6.086;2023-03-22T04:57:00;13.38;;;7.72;;
52414;SDS011;38340;52.964;6.086;2023-03-22T04:59:26;15.27;;;8.30;;
52414;SDS011;38340;52.964;6.086;2023-03-22T05:01:52;14.68;;;8.63;;
52414;SDS011;38340;52.964;6.086;2023-03-22T05:04:18;14.15;;;8.93;;
52414;SDS011;38340;52.964;6.086;2023-03-22T05:06:44;15.77;;;9.18;;
52414;SDS011;38340;52.964;6.086;2023-03-22T05:09:10;14.80;;;8.90;;
52414;SDS011;38340;52.964;6.086;2023-03-22T05:11:36;15.68;;;10.20;;
52414;SDS011;38340;52.964;6.086;2023-03-22T05:14:02;14.45;;;10.07;;
52414;SDS011;38340;52.964;6.086;2023-03-22T05:16:28;19.25;;;11.00;;
52414;SDS011;38340;52.964;6.086;2023-03-22T05:18:54;16.40;;;10.65;;
52414;SDS011;38340;52.964;6.086;2023-03-22T05:21:21;16.90;;;11.07;;
52414;SDS011;38340;52.964;6.086;2023-03-22T05:23:52;20.33;;;12.30;;
52414;SDS011;38340;52.964;6.086;2023-03-22T05:26:20;16.88;;;11.77;;
52414;SDS011;38340;52.964;6.086;2023-03-22T05:28:48;18.00;;;13.00;;
52414;SDS011;38340;52.964;6.086;2023-03-22T05:31:15;21.08;;;13.82;;
52414;SDS011;38340;52.964;6.086;2023-03-22T05:33:42;20.60;;;12.85;;
52414;SDS011;38340;52.964;6.086;2023-03-22T05:36:10;18.90;;;12.48;;
52414;SDS011;38340;52.964;6.086;2023-03-22T05:38:36;19.40;;;13.30;;
52414;SDS011;38340;52.964;6.086;2023-03-22T05:41:02;19.73;;;12.77;;
52414;SDS011;38340;52.964;6.086;2023-03-22T05:43:28;21.42;;;13.90;;
52414;SDS011;38340;52.964;6.086;2023-03-22T05:45:54;17.13;;;12.65;;
52414;SDS011;38340;52.964;6.086;2023-03-22T05:48:20;19.80;;;12.73;;
52414;SDS011;38340;52.964;6.086;2023-03-22T05:50:45;20.20;;;13.55;;
52414;SDS011;38340;52.964;6.086;2023-03-22T05:53:11;18.42;;;13.68;;
52414;SDS011;38340;52.964;6.086;2023-03-22T05:55:37;20.02;;;13.38;;
52414;SDS011;38340;52.964;6.086;2023-03-22T05:58:03;23.00;;;14.23;;
52414;SDS011;38340;52.964;6.086;2023-03-22T06:00:29;22.45;;;14.38;;
52414;SDS011;38340;52.964;6.086;2023-03-22T06:02:59;20.00;;;13.90;;
52414;SDS011;38340;52.964;6.086;2023-03-22T06:05:30;20.25;;;14.10;;
52414;SDS011;38340;52.964;6.086;2023-03-22T06:07:57;19.33;;;13.57;;
52414;SDS011;38340;52.964;6.086;2023-03-22T06:10:23;21.05;;;13.60;;
52414;SDS011;38340;52.964;6.086;2023-03-22T06:12:51;22.13;;;14.07;;
52414;SDS011;38340;52.964;6.086;2023-03-22T06:15:17;23.58;;;13.50;;
52414;SDS011;38340;52.964;6.086;2023-03-22T06:17:43;19.65;;;12.85;;
52414;SDS011;38340;52.964;6.086;2023-03-22T06:20:10;20.27;;;14.60;;
52414;SDS011;38340;52.964;6.086;2023-03-22T06:22:37;22.75;;;14.02;;
52414;SDS011;38340;52.964;6.086;2023-03-22T06:25:04;21.08;;;14.18;;
52414;SDS011;38340;52.964;6.086;2023-03-22T06:27:31;23.23;;;14.73;;
52414;SDS011;38340;52.964;6.086;2023-03-22T06:29:57;22.38;;;13.02;;
52414;SDS011;38340;52.964;6.086;2023-03-22T06:32:23;21.60;;;14.43;;
52414;SDS011;38340;52.964;6.086;2023-03-22T06:34:51;20.20;;;14.48;;
52414;SDS011;38340;52.964;6.086;2023-03-22T06:37:21;17.52;;;13.20;;
52414;SDS011;38340;52.964;6.086;2023-03-22T06:39:47;20.63;;;13.38;;
52414;SDS011;38340;52.964;6.086;2023-03-22T06:42:13;21.17;;;13.75;;
52414;SDS011;38340;52.964;6.086;2023-03-22T06:44:39;19.52;;;13.25;;
52414;SDS011;38340;52.964;6.086;2023-03-22T06:47:08;20.90;;;13.18;;
52414;SDS011;38340;52.964;6.086;2023-03-22T06:49:33;19.75;;;13.48;;
52414;SDS011;38340;52.964;6.086;2023-03-22T06:52:00;15.30;;;12.52;;
52414;SDS011;38340;52.964;6.086;2023-03-22T06:54:26;22.38;;;13.68;;
52414;SDS011;38340;52.964;6.086;2023-03-22T06:56:52;23.70;;;13.27;;
52414;SDS011;38340;52.964;6.086;2023-03-22T06:59:17;15.77;;;12.40;;
52414;SDS011;38340;52.964;6.086;2023-03-22T07:01:43;16.55;;;11.75;;
52414;SDS011;38340;52.964;6.086;2023-03-22T07:04:09;17.83;;;12.68;;
52414;SDS011;38340;52.964;6.086;2023-03-22T07:06:34;17.70;;;12.95;;
52414;SDS011;38340;52.964;6.086;2023-03-22T07:09:00;16.23;;;11.55;;
52414;SDS011;38340;52.964;6.086;2023-03-22T07:11:26;15.63;;;11.88;;
52414;SDS011;38340;52.964;6.086;2023-03-22T07:13:53;17.77;;;11.45;;
52414;SDS011;38340;52.964;6.086;2023-03-22T07:16:18;15.90;;;12.18;;
52414;SDS011;38340;52.964;6.086;2023-03-22T07:18:45;20.30;;;11.38;;
52414;SDS011;38340;52.964;6.086;2023-03-22T07:21:12;15.15;;;11.48;;
52414;SDS011;38340;52.964;6.086;2023-03-22T07:23:38;20.00;;;11.50;;
52414;SDS011;38340;52.964;6.086;2023-03-22T07:26:04;14.80;;;11.25;;
52414;SDS011;38340;52.964;6.086;2023-03-22T07:28:30;15.40;;;10.27;;
52414;SDS011;38340;52.964;6.086;2023-03-22T07:30:59;20.50;;;10.32;;
52414;SDS011;38340;52.964;6.086;2023-03-22T07:33:26;14.48;;;10.25;;
52414;SDS011;38340;52.964;6.086;2023-03-22T07:35:52;15.98;;;10.32;;
52414;SDS011;38340;52.964;6.086;2023-03-22T07:38:18;15.95;;;10.20;;
52414;SDS011;38340;52.964;6.086;2023-03-22T07:40:43;14.43;;;9.77;;
52414;SDS011;38340;52.964;6.086;2023-03-22T07:43:09;20.42;;;11.25;;
52414;SDS011;38340;52.964;6.086;2023-03-22T07:45:37;18.73;;;10.75;;
52414;SDS011;38340;52.964;6.086;2023-03-22T07:48:04;18.90;;;11.43;;
52414;SDS011;38340;52.964;6.086;2023-03-22T07:50:30;17.60;;;10.68;;
52414;SDS011;38340;52.964;6.086;2023-03-22T07:52:56;18.85;;;10.93;;
52414;SDS011;38340;52.964;6.086;2023-03-22T07:55:22;12.70;;;9.48;;
52414;SDS011;38340;52.964;6.086;2023-03-22T07:57:48;14.13;;;10.10;;
52414;SDS011;38340;52.964;6.086;2023-03-22T08:00:13;18.10;;;9.88;;
52414;SDS011;38340;52.964;6.086;2023-03-22T08:02:39;13.38;;;9.85;;
52414;SDS011;38340;52.964;6.086;2023-03-22T08:05:05;12.57;;;9.00;;
52414;SDS011;38340;52.964;6.086;2023-03-22T08:07:31;14.02;;;9.75;;
52414;SDS011;38340;52.964;6.086;2023-03-22T08:09:57;11.85;;;9.05;;
52414;SDS011;38340;52.964;6.086;2023-03-22T08:12:23;12.80;;;9.20;;
52414;SDS011;38340;52.964;6.086;2023-03-22T08:14:48;16.75;;;9.23;;
52414;SDS011;38340;52.964;6.086;2023-03-22T08:17:18;14.52;;;9.20;;
52414;SDS011;38340;52.964;6.086;2023-03-22T08:19:44;14.13;;;9.32;;
52414;SDS011;38340;52.964;6.086;2023-03-22T08:22:10;16.65;;;9.15;;
52414;SDS011;38340;52.964;6.086;2023-03-22T08:24:37;12.55;;;8.93;;
52414;SDS011;38340;52.964;6.086;2023-03-22T08:27:03;11.88;;;8.88;;
52414;SDS011;38340;52.964;6.086;2023-03-22T08:29:29;17.73;;;8.85;;
52414;SDS011;38340;52.964;6.086;2023-03-22T08:31:55;17.50;;;9.18;;
52414;SDS011;38340;52.964;6.086;2023-03-22T08:34:26;18.63;;;9.70;;
52414;SDS011;38340;52.964;6.086;2023-03-22T08:36:55;12.68;;;8.55;;
52414;SDS011;38340;52.964;6.086;2023-03-22T08:39:21;14.27;;;8.43;;
52414;SDS011;38340;52.964;6.086;2023-03-22T08:41:47;15.93;;;8.52;;
52414;SDS011;38340;52.964;6.086;2023-03-22T08:44:13;15.10;;;7.82;;
52414;SDS011;38340;52.964;6.086;2023-03-22T08:46:39;13.68;;;8.35;;
52414;SDS011;38340;52.964;6.086;2023-03-22T08:49:05;15.10;;;8.85;;
52414;SDS011;38340;52.964;6.086;2023-03-22T08:51:30;11.45;;;8.40;;
52414;SDS011;38340;52.964;6.086;2023-03-22T08:53:56;15.10;;;8.00;;
52414;SDS011;38340;52.964;6.086;2023-03-22T08:56:24;11.63;;;8.00;;
52414;SDS011;38340;52.964;6.086;2023-03-22T08:58:51;10.65;;;7.78;;
52414;SDS011;38340;52.964;6.086;2023-03-22T09:01:17;11.90;;;7.53;;
52414;SDS011;38340;52.964;6.086;2023-03-22T09:03:45;11.00;;;7.45;;
52414;SDS011;38340;52.964;6.086;2023-03-22T09:06:11;11.45;;;7.43;;
52414;SDS011;38340;52.964;6.086;2023-03-22T09:08:38;17.90;;;8.30;;
52414;SDS011;38340;52.964;6.086;2023-03-22T09:11:07;11.23;;;8.30;;
52414;SDS011;38340;52.964;6.086;2023-03-22T09:13:33;15.18;;;7.88;;
52414;SDS011;38340;52.964;6.086;2023-03-22T09:15:59;16.65;;;7.90;;
52414;SDS011;38340;52.964;6.086;2023-03-22T09:18:25;12.32;;;7.53;;
52414;SDS011;38340;52.964;6.086;2023-03-22T09:20:51;15.23;;;8.65;;
52414;SDS011;38340;52.964;6.086;2023-03-22T09:23:17;19.95;;;8.35;;
52414;SDS011;38340;52.964;6.086;2023-03-22T09:25:46;16.85;;;7.78;;
52414;SDS011;38340;52.964;6.086;2023-03-22T09:28:13;11.88;;;7.63;;
52414;SDS011;38340;52.964;6.086;2023-03-22T09:30:39;11.07;;;7.38;;
52414;SDS011;38340;52.964;6.086;2023-03-22T09:33:04;11.77;;;6.90;;
52414;SDS011;38340;52.964;6.086;2023-03-22T09:35:31;12.40;;;7.22;;
52414;SDS011;38340;52.964;6.086;2023-03-22T09:37:57;14.95;;;7.55;;
52414;SDS011;38340;52.964;6.086;2023-03-22T09:40:28;18.63;;;7.63;;
52414;SDS011;38340;52.964;6.086;2023-03-22T09:42:59;14.80;;;7.35;;
52414;SDS011;38340;52.964;6.086;2023-03-22T09:45:36;10.05;;;7.43;;
52414;SDS011;38340;52.964;6.086;2023-03-22T09:48:05;15.25;;;7.93;;
52414;SDS011;38340;52.964;6.086;2023-03-22T09:50:38;13.68;;;7.32;;
52414;SDS011;38340;52.964;6.086;2023-03-22T09:53:12;16.67;;;7.68;;
52414;SDS011;38340;52.964;6.086;2023-03-22T09:55:48;17.02;;;8.05;;
52414;SDS011;38340;52.964;6.086;2023-03-22T09:58:29;14.15;;;7.20;;
52414;SDS011;38340;52.964;6.086;2023-03-22T10:06:18;16.55;;;8.48;;
52414;SDS011;38340;52.964;6.086;2023-03-22T10:14:49;13.57;;;8.05;;
52414;SDS011;38340;52.964;6.086;2023-03-22T10:17:23;13.87;;;8.13;;
52414;SDS011;38340;52.964;6.086;2023-03-22T10:19:52;14.65;;;7.68;;
52414;SDS011;38340;52.964;6.086;2023-03-22T10:22:23;14.55;;;7.75;;
52414;SDS011;38340;52.964;6.086;2023-03-22T10:24:54;14.95;;;8.18;;
52414;SDS011;38340;52.964;6.086;2023-03-22T10:27:21;10.85;;;7.80;;
52414;SDS011;38340;52.964;6.086;2023-03-22T10:32:17;10.45;;;8.00;;
52414;SDS011;38340;52.964;6.086;2023-03-22T10:34:54;14.55;;;8.23;;
52414;SDS011;38340;52.964;6.086;2023-03-22T10:37:21;14.70;;;7.93;;
52414;SDS011;38340;52.964;6.086;2023-03-22T10:39:53;15.48;;;8.57;;
52414;SDS011;38340;52.964;6.086;2023-03-22T10:42:22;13.95;;;8.38;;
52414;SDS011;38340;52.964;6.086;2023-03-22T10:44:55;15.48;;;8.15;;
52414;SDS011;38340;52.964;6.086;2023-03-22T10:47:28;10.88;;;7.40;;
52414;SDS011;38340;52.964;6.086;2023-03-22T10:50:01;10.45;;;8.68;;
52414;SDS011;38340;52.964;6.086;2023-03-22T10:53:05;13.38;;;8.50;;
52414;SDS011;38340;52.964;6.086;2023-03-22T10:55:39;12.07;;;8.25;;
52414;SDS011;38340;52.964;6.086;2023-03-22T10:58:10;9.85;;;7.60;;
52414;SDS011;38340;52.964;6.086;2023-03-22T11:00:36;9.45;;;7.38;;
52414;SDS011;38340;52.964;6.086;2023-03-22T11:03:07;11.82;;;8.55;;
52414;SDS011;38340;52.964;6.086;2023-03-22T11:05:32;10.38;;;7.90;;
52414;SDS011;38340;52.964;6.086;2023-03-22T11:07:59;12.90;;;7.80;;
52414;SDS011;38340;52.964;6.086;2023-03-22T11:10:29;14.43;;;7.70;;
52414;SDS011;38340;52.964;6.086;2023-03-22T11:15:32;14.43;;;8.35;;
52414;SDS011;38340;52.964;6.086;2023-03-22T11:18:21;10.75;;;7.90;;
52414;SDS011;38340;52.964;6.086;2023-03-22T11:20:56;12.93;;;8.65;;
52414;SDS011;38340;52.964;6.086;2023-03-22T11:23:24;10.75;;;8.02;;
52414;SDS011;38340;52.964;6.086;2023-03-22T11:25:54;11.68;;;8.10;;
52414;SDS011;38340;52.964;6.086;2023-03-22T11:28:21;8.77;;;7.40;;
52414;SDS011;38340;52.964;6.086;2023-03-22T11:31:00;13.90;;;7.93;;
52414;SDS011;38340;52.964;6.086;2023-03-22T11:33:54;10.15;;;8.00;;
52414;SDS011;38340;52.964;6.086;2023-03-22T11:36:22;10.90;;;7.78;;
52414;SDS011;38340;52.964;6.086;2023-03-22T11:38:48;10.27;;;7.68;;
52414;SDS011;38340;52.964;6.086;2023-03-22T11:41:27;10.75;;;7.85;;
52414;SDS011;38340;52.964;6.086;2023-03-22T11:43:57;9.75;;;7.45;;
52414;SDS011;38340;52.964;6.086;2023-03-22T11:46:34;10.55;;;7.85;;
52414;SDS011;38340;52.964;6.086;2023-03-22T11:49:03;10.00;;;7.70;;
52414;SDS011;38340;52.964;6.086;2023-03-22T11:51:33;14.23;;;7.80;;
52414;SDS011;38340;52.964;6.086;2023-03-22T11:56:44;10.88;;;7.95;;
52414;SDS011;38340;52.964;6.086;2023-03-22T11:59:14;11.77;;;7.55;;
52414;SDS011;38340;52.964;6.086;2023-03-22T12:01:57;15.70;;;7.80;;
52414;SDS011;38340;52.964;6.086;2023-03-22T12:04:43;8.95;;;7.13;;
52414;SDS011;38340;52.964;6.086;2023-03-22T12:07:13;13.10;;;7.47;;
52414;SDS011;38340;52.964;6.086;2023-03-22T12:12:20;8.85;;;6.97;;
52414;SDS011;38340;52.964;6.086;2023-03-22T12:17:39;8.85;;;7.45;;
52414;SDS011;38340;52.964;6.086;2023-03-22T12:20:15;10.13;;;7.00;;
52414;SDS011;38340;52.964;6.086;2023-03-22T12:22:57;9.27;;;6.90;;
52414;SDS011;38340;52.964;6.086;2023-03-22T12:25:29;12.50;;;6.97;;
52414;SDS011;38340;52.964;6.086;2023-03-22T12:28:01;10.82;;;7.35;;
52414;SDS011;38340;52.964;6.086;2023-03-22T12:30:33;17.40;;;8.93;;
52414;SDS011;38340;52.964;6.086;2023-03-22T12:33:05;10.23;;;8.00;;
52414;SDS011;38340;52.964;6.086;2023-03-22T12:35:37;9.75;;;8.30;;
52414;SDS011;38340;52.964;6.086;2023-03-22T12:38:18;12.13;;;9.20;;
52414;SDS011;38340;52.964;6.086;2023-03-22T12:40:51;13.20;;;8.40;;
52414;SDS011;38340;52.964;6.086;2023-03-22T12:43:53;9.38;;;8.35;;
52414;SDS011;38340;52.964;6.086;2023-03-22T12:46:26;14.85;;;9.27;;
52414;SDS011;38340;52.964;6.086;2023-03-22T12:48:57;11.02;;;9.05;;
52414;SDS011;38340;52.964;6.086;2023-03-22T12:54:08;15.65;;;9.40;;
52414;SDS011;38340;52.964;6.086;2023-03-22T12:56:41;10.70;;;9.23;;
52414;SDS011;38340;52.964;6.086;2023-03-22T12:59:19;11.10;;;8.57;;
52414;SDS011;38340;52.964;6.086;2023-03-22T13:02:02;13.30;;;9.32;;
52414;SDS011;38340;52.964;6.086;2023-03-22T13:07:09;16.08;;;10.07;;
52414;SDS011;38340;52.964;6.086;2023-03-22T13:09:44;11.50;;;9.13;;
52414;SDS011;38340;52.964;6.086;2023-03-22T13:15:26;13.60;;;9.98;;
52414;SDS011;38340;52.964;6.086;2023-03-22T13:17:39;15.27;;;10.82;;
52414;SDS011;38340;52.964;6.086;2023-03-22T13:35:19;19.42;;;12.23;;
52414;SDS011;38340;52.964;6.086;2023-03-22T13:37:47;15.98;;;11.40;;
52414;SDS011;38340;52.964;6.086;2023-03-22T14:10:36;15.15;;;12.57;;
52414;SDS011;38340;52.964;6.086;2023-03-22T14:15:49;17.65;;;11.40;;
52414;SDS011;38340;52.964;6.086;2023-03-22T14:18:29;16.90;;;13.45;;
52414;SDS011;38340;52.964;6.086;2023-03-22T14:20:58;18.75;;;13.10;;
52414;SDS011;38340;52.964;6.086;2023-03-22T14:23:45;14.77;;;11.52;;
52414;SDS011;38340;52.964;6.086;2023-03-22T14:26:23;15.73;;;11.15;;
52414;SDS011;38340;52.964;6.086;2023-03-22T14:28:52;16.83;;;12.13;;
52414;SDS011;38340;52.964;6.086;2023-03-22T14:31:28;16.88;;;11.05;;
52414;SDS011;38340;52.964;6.086;2023-03-22T14:33:55;16.13;;;11.73;;
52414;SDS011;38340;52.964;6.086;2023-03-22T14:36:32;15.38;;;11.57;;
52414;SDS011;38340;52.964;6.086;2023-03-22T14:39:25;13.70;;;11.02;;
52414;SDS011;38340;52.964;6.086;2023-03-22T14:44:40;16.48;;;11.75;;
52414;SDS011;38340;52.964;6.086;2023-03-22T14:47:11;14.70;;;10.70;;
52414;SDS011;38340;52.964;6.086;2023-03-22T14:49:45;14.27;;;11.02;;
52414;SDS011;38340;52.964;6.086;2023-03-22T14:52:13;15.63;;;11.32;;
52414;SDS011;38340;52.964;6.086;2023-03-22T14:54:47;14.45;;;11.70;;
52414;SDS011;38340;52.964;6.086;2023-03-22T14:57:15;14.75;;;11.55;;
52414;SDS011;38340;52.964;6.086;2023-03-22T14:59:42;13.57;;;11.25;;
52414;SDS011;38340;52.964;6.086;2023-03-22T15:04:54;14.70;;;11.95;;
52414;SDS011;38340;52.964;6.086;2023-03-22T15:07:20;13.43;;;11.98;;
52414;SDS011;38340;52.964;6.086;2023-03-22T15:09:46;22.23;;;11.95;;
52414;SDS011;38340;52.964;6.086;2023-03-22T15:12:12;18.48;;;11.98;;
52414;SDS011;38340;52.964;6.086;2023-03-22T15:14:40;15.90;;;11.52;;
52414;SDS011;38340;52.964;6.086;2023-03-22T15:17:07;16.42;;;11.60;;
52414;SDS011;38340;52.964;6.086;2023-03-22T15:19:37;14.30;;;11.63;;
52414;SDS011;38340;52.964;6.086;2023-03-22T15:22:12;20.60;;;13.15;;
52414;SDS011;38340;52.964;6.086;2023-03-22T15:24:53;19.73;;;12.63;;
52414;SDS011;38340;52.964;6.086;2023-03-22T15:27:28;18.83;;;11.70;;
52414;SDS011;38340;52.964;6.086;2023-03-22T15:29:56;14.15;;;11.70;;
52414;SDS011;38340;52.964;6.086;2023-03-22T15:32:23;14.38;;;12.35;;
52414;SDS011;38340;52.964;6.086;2023-03-22T15:34:50;15.82;;;12.60;;
52414;SDS011;38340;52.964;6.086;2023-03-22T15:37:27;13.93;;;11.57;;
52414;SDS011;38340;52.964;6.086;2023-03-22T15:39:58;18.48;;;12.55;;
52414;SDS011;38340;52.964;6.086;2023-03-22T15:42:30;15.23;;;12.50;;
52414;SDS011;38340;52.964;6.086;2023-03-22T15:44:58;22.63;;;13.18;;
52414;SDS011;38340;52.964;6.086;2023-03-22T15:47:29;19.92;;;12.50;;
52414;SDS011;38340;52.964;6.086;2023-03-22T15:50:09;17.35;;;12.68;;
52414;SDS011;38340;52.964;6.086;2023-03-22T15:52:35;19.88;;;12.77;;
52414;SDS011;38340;52.964;6.086;2023-03-22T15:55:12;15.93;;;11.95;;
52414;SDS011;38340;52.964;6.086;2023-03-22T16:00:20;18.52;;;12.90;;
52414;SDS011;38340;52.964;6.086;2023-03-22T16:02:51;15.70;;;13.43;;
52414;SDS011;38340;52.964;6.086;2023-03-22T16:05:20;15.35;;;12.82;;
52414;SDS011;38340;52.964;6.086;2023-03-22T16:07:46;17.17;;;12.43;;
52414;SDS011;38340;52.964;6.086;2023-03-22T16:10:18;17.58;;;12.18;;
52414;SDS011;38340;52.964;6.086;2023-03-22T16:12:45;19.60;;;13.65;;
52414;SDS011;38340;52.964;6.086;2023-03-22T16:15:15;15.65;;;13.07;;
52414;SDS011;38340;52.964;6.086;2023-03-22T16:17:42;17.38;;;13.00;;
52414;SDS011;38340;52.964;6.086;2023-03-22T16:20:09;16.75;;;13.52;;
52414;SDS011;38340;52.964;6.086;2023-03-22T16:22:36;18.92;;;14.40;;
52414;SDS011;38340;52.964;6.086;2023-03-22T16:25:03;22.30;;;14.15;;
52414;SDS011;38340;52.964;6.086;2023-03-22T16:27:29;19.85;;;14.32;;
52414;SDS011;38340;52.964;6.086;2023-03-22T16:29:55;20.98;;;14.68;;
52414;SDS011;38340;52.964;6.086;2023-03-22T16:32:25;17.63;;;14.55;;
52414;SDS011;38340;52.964;6.086;2023-03-22T16:34:51;27.35;;;17.20;;
52414;SDS011;38340;52.964;6.086;2023-03-22T16:37:21;20.63;;;15.90;;
52414;SDS011;38340;52.964;6.086;2023-03-22T16:39:48;22.35;;;14.18;;
52414;SDS011;38340;52.964;6.086;2023-03-22T16:42:16;21.42;;;15.80;;
52414;SDS011;38340;52.964;6.086;2023-03-22T16:44:43;18.65;;;14.95;;
52414;SDS011;38340;52.964;6.086;2023-03-22T16:47:10;22.98;;;16.40;;
52414;SDS011;38340;52.964;6.086;2023-03-22T16:49:37;20.70;;;14.93;;
52414;SDS011;38340;52.964;6.086;2023-03-22T16:52:04;19.48;;;16.48;;